SBAF

Details ICAO SBAF
Name Campo Delio Jardim de Mattos
Region Brazil
Timezone America/Sao_Paulo (UTC-2.0)
Plans Departing 7
Arriving 5
Stats Elevation 110 ft / 34 m (AMSL)
Location -22.875083° -43.384709°
Runways 1
Magnetic Variation 22.710° W
Sunrise 2017-12-12 08:03:17 UTC / 2017-12-12 06:03:17 Local
Sunset 2017-12-12 21:34:13 UTC / 2017-12-12 19:34:13 Local
Advertisement - Login to hide

Runways

ID Width Length Bearing (true) Bearing (mag) Surface Threshold Offset Overrun Length
08 171 ft / 52 m 6,527 ft / 1,990 m 61.63° 84.34° Concrete 0 ft / 0 m 0 ft / 0 m
26 171 ft / 52 m 6,527 ft / 1,990 m 241.63° 264.34° Concrete 0 ft / 0 m 0 ft / 0 m

Approach Navaids

Runway Type Ident Frequency Range Bearing (true) Bearing (mag) Slope Elevation
26 Localiser IAF 109.70 MHz 18 nm / 33 km 240.18° 262.89° - 110 ft / 34 m (AMSL)

Map

Weather


0- 5 10 15 20 25 30 35+ Temperature / ° C

Clouds and Precipitation
Forecast for 2017-12-13 00:00 UTC. Updated 42 minutes ago

Ground ~20,000 ft ~40,000 ft Winds

METAR

Not found

TAF

TAF TAF SBAF 121430Z 1218/1306 19015KT 7000 BKN015 TX26/1218Z TN20/1306Z PROB30 1218/1221 4000 RA BR BKN012 BECMG 1221/1223 16010KT BECMG 1300/1302 10010KT BECMG 1304/1306 SCT015 RMK PGS

Frequencies

Ground 121.85 MHz AFONSOS
Approach 119.35 MHz RIO APP
Tower 118.90 MHz AFONSOS TWR
Warning: Do not use this data for real-world aviation or navigation. No guarantee of current accuracy is given.